createdAt,value
2023-03-29T00:01:11.492Z,101722.72
2023-03-29T00:04:03.466Z,101718.94
2023-03-29T00:06:36.444Z,101714.63
2023-03-29T00:09:10.437Z,101717.41
2023-03-29T00:11:42.471Z,101711.03
2023-03-29T00:14:16.981Z,101709.72
2023-03-29T00:16:50.709Z,101703.44
2023-03-29T00:19:22.336Z,101707.06
2023-03-29T00:21:54.532Z,101705.16
2023-03-29T00:24:26.100Z,101703.16
2023-03-29T00:26:57.892Z,101692.44
2023-03-29T00:29:32.781Z,101695.75
2023-03-29T00:32:04.624Z,101694.16
2023-03-29T00:34:36.593Z,101696.81
2023-03-29T00:37:09.453Z,101691.69
2023-03-29T00:39:42.572Z,101689.03
2023-03-29T00:42:17.020Z,101689.88
2023-03-29T00:45:09.446Z,101690.91
2023-03-29T00:47:46.271Z,101678.13
2023-03-29T00:50:22.757Z,101681.44
2023-03-29T00:53:00.252Z,101675.94
2023-03-29T00:55:35.703Z,101675.28
2023-03-29T00:58:13.272Z,101676.59
2023-03-29T01:01:07.745Z,101671.19
2023-03-29T01:03:46.764Z,101669.88
2023-03-29T01:06:47.439Z,101669.28
2023-03-29T01:09:22.845Z,101666.06
2023-03-29T01:11:58.795Z,101661.63
2023-03-29T01:14:37.004Z,101651.66
2023-03-29T01:17:13.189Z,101650.59
2023-03-29T01:19:51.258Z,101650.97
2023-03-29T01:22:34.420Z,101639.56
2023-03-29T01:25:16.262Z,101633.22
2023-03-29T01:28:02.920Z,101627.16
2023-03-29T01:30:40.686Z,101622.22
2023-03-29T01:33:21.566Z,101618.59
2023-03-29T01:36:00.400Z,101617.31
2023-03-29T01:38:38.527Z,101603.34
2023-03-29T01:41:10.516Z,101601.91
2023-03-29T01:43:48.953Z,101596.59
2023-03-29T01:46:29.807Z,101600.00
2023-03-29T01:49:05.537Z,101595.38
2023-03-29T01:51:42.716Z,101588.44
2023-03-29T01:54:20.118Z,101585.03
2023-03-29T01:56:53.993Z,101588.25
2023-03-29T01:59:34.558Z,101570.31
2023-03-29T02:02:08.583Z,101574.78
2023-03-29T02:04:45.096Z,101574.22
2023-03-29T02:07:19.772Z,101569.63
2023-03-29T02:09:54.026Z,101573.91
2023-03-29T02:12:26.224Z,101575.63
2023-03-29T02:15:01.184Z,101565.09
2023-03-29T02:17:34.159Z,101569.47
2023-03-29T02:20:14.873Z,101557.88
2023-03-29T02:22:53.200Z,101553.25
2023-03-29T02:25:26.288Z,101552.47
2023-03-29T02:27:58.972Z,101546.31
2023-03-29T02:30:38.395Z,101541.19
2023-03-29T02:33:14.714Z,101538.53
2023-03-29T02:35:53.597Z,101540.34
2023-03-29T02:38:28.722Z,101529.63
2023-03-29T02:41:03.394Z,101526.97
2023-03-29T02:43:36.493Z,101524.78
2023-03-29T02:46:11.501Z,101520.72
2023-03-29T02:48:44.529Z,101518.75
2023-03-29T02:51:21.475Z,101507.34
2023-03-29T02:54:00.481Z,101512.66
2023-03-29T02:56:32.077Z,101510.09
2023-03-29T02:59:04.168Z,101504.13
2023-03-29T03:01:38.956Z,101504.88
2023-03-29T03:04:10.908Z,101505.06
2023-03-29T03:06:42.808Z,101504.53
2023-03-29T03:09:14.972Z,101498.25
2023-03-29T03:11:46.590Z,101492.38
2023-03-29T03:14:19.407Z,101493.22
2023-03-29T03:16:53.680Z,101490.66
2023-03-29T03:19:25.639Z,101483.56
2023-03-29T03:21:57.254Z,101482.59
2023-03-29T03:24:29.711Z,101478.38
2023-03-29T03:27:01.293Z,101467.84
2023-03-29T03:29:33.236Z,101477.31
2023-03-29T03:32:08.461Z,101465.94
2023-03-29T03:34:40.263Z,101473.44
2023-03-29T03:37:12.534Z,101470.50
2023-03-29T03:39:44.382Z,101468.88
2023-03-29T03:42:16.582Z,101465.81
2023-03-29T03:44:48.776Z,101458.75
2023-03-29T03:47:23.093Z,101462.97
2023-03-29T03:49:54.941Z,101457.88
2023-03-29T03:52:26.630Z,101463.75
2023-03-29T03:54:58.527Z,101468.19
2023-03-29T03:57:30.103Z,101461.09
2023-03-29T04:00:02.269Z,101458.53
2023-03-29T04:02:36.555Z,101457.41
2023-03-29T04:05:17.450Z,101457.41
2023-03-29T04:07:49.273Z,101461.84
2023-03-29T04:10:21.281Z,101463.75
2023-03-29T04:12:52.771Z,101467.25
2023-03-29T04:15:24.783Z,101471.91
2023-03-29T04:17:59.646Z,101459.78
2023-03-29T04:20:31.623Z,101456.00
2023-03-29T04:23:03.217Z,101454.28
2023-03-29T04:25:35.095Z,101448.88
2023-03-29T04:28:06.834Z,101449.34
2023-03-29T04:30:39.025Z,101450.97
2023-03-29T04:33:13.446Z,101454.38
2023-03-29T04:35:45.587Z,101449.63
2023-03-29T04:38:17.323Z,101447.19
2023-03-29T04:40:49.350Z,101447.47
2023-03-29T04:43:21.008Z,101447.47
2023-03-29T04:45:53.276Z,101450.31
2023-03-29T04:48:30.658Z,101440.81
2023-03-29T04:51:02.891Z,101439.00
2023-03-29T04:53:34.659Z,101436.94
2023-03-29T04:56:06.988Z,101441.56
2023-03-29T04:58:38.568Z,101441.66
2023-03-29T05:01:10.609Z,101432.88
2023-03-29T05:03:45.305Z,101434.28
2023-03-29T05:06:17.321Z,101422.59
2023-03-29T05:08:48.937Z,101424.63
2023-03-29T05:11:32.377Z,101423.09
2023-03-29T05:14:07.677Z,101428.13
2023-03-29T05:16:39.858Z,101422.72
2023-03-29T05:19:14.615Z,101421.97
2023-03-29T05:21:46.598Z,101425.91
2023-03-29T05:24:18.436Z,101418.81
2023-03-29T05:26:52.202Z,101421.38
2023-03-29T05:29:24.464Z,101422.97
2023-03-29T05:31:56.642Z,101425.25
2023-03-29T05:34:31.837Z,101417.94
2023-03-29T05:37:04.155Z,101419.56
2023-03-29T05:39:37.999Z,101415.19
2023-03-29T05:42:12.637Z,101412.81
2023-03-29T05:44:44.916Z,101412.81
2023-03-29T05:47:17.595Z,101406.19
2023-03-29T05:49:53.421Z,101402.00
2023-03-29T05:52:26.055Z,101396.66
2023-03-29T05:54:57.768Z,101405.78
2023-03-29T05:57:29.879Z,101407.44
2023-03-29T06:00:02.411Z,101405.22
2023-03-29T06:02:35.410Z,101404.84
2023-03-29T06:05:10.406Z,101403.66
2023-03-29T06:07:46.465Z,101398.78
2023-03-29T06:10:20.629Z,101412.75
2023-03-29T06:12:52.848Z,101410.19
2023-03-29T06:15:25.452Z,101407.34
2023-03-29T06:17:57.608Z,101412.56
2023-03-29T06:20:32.268Z,101405.75
2023-03-29T06:23:04.273Z,101406.28
2023-03-29T06:25:36.025Z,101407.66
2023-03-29T06:28:08.345Z,101397.56
2023-03-29T06:30:40.111Z,101396.44
2023-03-29T06:33:12.262Z,101395.34
2023-03-29T06:35:50.128Z,101400.16
2023-03-29T06:38:23.009Z,101396.78
2023-03-29T06:40:54.732Z,101399.66
2023-03-29T06:43:26.751Z,101398.06
2023-03-29T06:45:58.700Z,101391.69
2023-03-29T06:48:31.042Z,101391.09
2023-03-29T06:51:05.398Z,101383.97
2023-03-29T06:53:44.522Z,101386.75
2023-03-29T06:56:16.461Z,101383.91
2023-03-29T06:58:48.964Z,101387.63
2023-03-29T07:01:21.110Z,101378.22
2023-03-29T07:03:53.353Z,101393.34
2023-03-29T07:06:28.180Z,101381.78
2023-03-29T07:09:01.910Z,101382.72
2023-03-29T07:11:34.399Z,101390.56
2023-03-29T07:14:06.419Z,101384.13
2023-03-29T07:16:39.469Z,101386.84
2023-03-29T07:19:12.156Z,101382.03
2023-03-29T07:21:46.846Z,101386.31
2023-03-29T07:24:20.276Z,101377.81
2023-03-29T07:27:12.237Z,101381.00
2023-03-29T07:29:44.712Z,101386.59
2023-03-29T07:32:17.218Z,101380.06
2023-03-29T07:34:49.766Z,101379.56
2023-03-29T07:37:25.163Z,101377.97
2023-03-29T07:39:57.593Z,101375.66
2023-03-29T07:42:29.712Z,101384.78
2023-03-29T07:45:02.316Z,101377.59
2023-03-29T07:47:35.515Z,101374.41
2023-03-29T07:50:08.997Z,101372.16
2023-03-29T07:52:44.948Z,101370.53
2023-03-29T07:55:18.108Z,101371.34
2023-03-29T07:57:52.146Z,101372.09
2023-03-29T08:00:25.686Z,101370.56
2023-03-29T08:02:58.192Z,101364.47
2023-03-29T08:05:40.678Z,101366.59
2023-03-29T08:08:17.664Z,101372.78
2023-03-29T08:10:50.399Z,101374.22
2023-03-29T08:13:22.831Z,101380.16
2023-03-29T08:15:55.990Z,101376.75
2023-03-29T08:18:28.596Z,101367.38
2023-03-29T08:21:02.028Z,101363.69
2023-03-29T08:23:37.453Z,101365.31
2023-03-29T08:26:11.836Z,101366.75
2023-03-29T08:28:44.289Z,101356.31
2023-03-29T08:31:17.390Z,101350.41
2023-03-29T08:33:49.888Z,101354.09
2023-03-29T08:36:22.967Z,101349.97
2023-03-29T08:38:58.337Z,101338.94
2023-03-29T08:41:42.102Z,101340.47
2023-03-29T08:44:28.328Z,101354.38
2023-03-29T08:47:10.728Z,101339.19
2023-03-29T08:49:47.166Z,101331.81
2023-03-29T08:52:26.854Z,101328.22
2023-03-29T08:55:04.248Z,101326.38
2023-03-29T08:57:43.043Z,101321.34
2023-03-29T09:00:25.005Z,101318.41
2023-03-29T09:02:59.494Z,101325.25
2023-03-29T09:05:37.606Z,101318.09
2023-03-29T09:08:16.852Z,101326.56
2023-03-29T09:11:04.854Z,101314.44
2023-03-29T09:13:47.880Z,101317.66
2023-03-29T09:16:31.724Z,101300.81
2023-03-29T09:19:17.726Z,101312.94
2023-03-29T09:21:58.076Z,101304.59
2023-03-29T09:24:43.156Z,101310.19
2023-03-29T09:27:24.276Z,101309.69
2023-03-29T09:30:08.320Z,101312.09
2023-03-29T09:32:47.581Z,101306.72
2023-03-29T09:35:26.568Z,101302.47
2023-03-29T09:37:59.046Z,101295.41
2023-03-29T09:40:37.641Z,101293.88
2023-03-29T09:43:18.119Z,101296.75
2023-03-29T09:45:57.316Z,101291.84
2023-03-29T09:48:33.242Z,101287.97
2023-03-29T09:51:08.291Z,101284.09
2023-03-29T09:53:40.808Z,101284.06
2023-03-29T09:56:16.249Z,101282.25
2023-03-29T09:58:51.804Z,101292.09
2023-03-29T10:01:26.530Z,101279.38
2023-03-29T10:04:05.190Z,101286.91
2023-03-29T10:06:39.290Z,101285.88
2023-03-29T10:09:19.326Z,101278.78
2023-03-29T10:11:57.062Z,101267.13
2023-03-29T10:14:38.676Z,101260.53
2023-03-29T10:17:19.343Z,101253.97
2023-03-29T10:19:53.633Z,101256.47
2023-03-29T10:22:29.167Z,101254.94
2023-03-29T10:25:01.625Z,101249.91
2023-03-29T10:27:37.048Z,101248.69
2023-03-29T10:30:22.209Z,101244.78
2023-03-29T10:33:00.230Z,101233.41
2023-03-29T10:35:36.245Z,101239.63
2023-03-29T10:38:13.796Z,101237.69
2023-03-29T10:40:48.668Z,101235.16
2023-03-29T10:43:26.383Z,101224.22
2023-03-29T10:46:11.252Z,101226.16
2023-03-29T10:48:49.526Z,101229.56
2023-03-29T10:51:22.898Z,101217.28
2023-03-29T10:53:55.407Z,101219.97
2023-03-29T10:56:38.007Z,101219.50
2023-03-29T10:59:35.111Z,101210.72
2023-03-29T11:02:40.092Z,101211.88
2023-03-29T11:05:25.952Z,101206.34
2023-03-29T11:08:15.476Z,101202.28
2023-03-29T11:10:59.040Z,101201.94
2023-03-29T11:13:40.753Z,101207.88
2023-03-29T11:16:24.360Z,101206.13
2023-03-29T11:19:24.161Z,101202.09
2023-03-29T11:22:20.002Z,101203.44
2023-03-29T11:25:29.792Z,101199.91
2023-03-29T11:28:11.311Z,101202.78
2023-03-29T11:30:59.011Z,101199.56
2023-03-29T11:33:53.028Z,101198.53
2023-03-29T11:36:46.600Z,101188.25
2023-03-29T11:39:30.836Z,101185.91
2023-03-29T11:42:12.706Z,101184.00
2023-03-29T11:45:02.613Z,101177.69
2023-03-29T11:47:47.857Z,101179.44
2023-03-29T11:50:37.873Z,101187.91
2023-03-29T11:53:29.186Z,101179.97
2023-03-29T11:56:29.628Z,101174.78
2023-03-29T11:59:16.084Z,101169.25
2023-03-29T12:02:05.876Z,101168.88
2023-03-29T12:04:54.983Z,101171.06
2023-03-29T12:07:40.405Z,101180.47
2023-03-29T12:10:29.720Z,101166.72
2023-03-29T12:13:18.483Z,101170.06
2023-03-29T12:16:03.648Z,101168.69
2023-03-29T12:18:46.117Z,101164.16
2023-03-29T12:21:30.932Z,101164.50
2023-03-29T12:24:23.933Z,101163.34
2023-03-29T12:27:28.780Z,101160.81
2023-03-29T12:30:24.560Z,101154.94
2023-03-29T12:33:27.952Z,101165.03
2023-03-29T12:36:24.992Z,101160.31
2023-03-29T12:39:03.811Z,101156.44
2023-03-29T12:41:50.133Z,101151.19
2023-03-29T12:44:28.985Z,101143.44
2023-03-29T12:47:08.476Z,101139.38
2023-03-29T12:49:50.114Z,101134.84
2023-03-29T12:52:31.345Z,101138.41
2023-03-29T12:55:11.487Z,101140.94
2023-03-29T12:58:12.922Z,101131.63
2023-03-29T13:01:02.325Z,101126.59
2023-03-29T13:03:52.562Z,101117.66
2023-03-29T13:06:54.284Z,101115.63
2023-03-29T13:09:45.869Z,101102.31
2023-03-29T13:12:33.480Z,101105.84
2023-03-29T13:15:10.844Z,101116.28
2023-03-29T13:18:01.460Z,101119.84
2023-03-29T13:20:53.869Z,101114.59
2023-03-29T13:23:40.212Z,101113.78
2023-03-29T13:26:34.869Z,101102.31
2023-03-29T13:29:23.585Z,101117.97
2023-03-29T13:32:07.979Z,101116.78
2023-03-29T13:34:52.128Z,101117.97
2023-03-29T13:37:39.833Z,101114.38
2023-03-29T13:40:32.474Z,101114.03
2023-03-29T13:43:20.225Z,101115.31
2023-03-29T13:46:19.187Z,101117.38
2023-03-29T13:49:01.993Z,101110.31
2023-03-29T13:51:56.283Z,101105.19
2023-03-29T13:54:37.657Z,101103.66
2023-03-29T13:57:18.962Z,101105.75
2023-03-29T14:00:24.469Z,101098.88
2023-03-29T14:03:10.632Z,101101.53
2023-03-29T14:05:45.688Z,101105.91
2023-03-29T14:08:28.573Z,101093.44
2023-03-29T14:11:04.870Z,101089.75
2023-03-29T14:13:38.805Z,101105.03
2023-03-29T14:16:18.531Z,101112.00
2023-03-29T14:18:52.717Z,101111.56
2023-03-29T14:21:27.004Z,101107.50
2023-03-29T14:24:04.215Z,101107.97
2023-03-29T14:26:53.314Z,101104.63
2023-03-29T14:29:26.926Z,101105.25
2023-03-29T14:32:11.372Z,101102.38
2023-03-29T14:34:45.877Z,101100.16
2023-03-29T14:37:27.305Z,101089.56
2023-03-29T14:40:26.503Z,101101.44
2023-03-29T14:43:10.475Z,101094.38
2023-03-29T14:45:47.449Z,101094.00
2023-03-29T14:48:28.067Z,101094.09
2023-03-29T14:50:59.707Z,101101.69
2023-03-29T14:53:38.194Z,101086.28
2023-03-29T14:56:19.180Z,101091.47
2023-03-29T14:58:52.773Z,101086.31
2023-03-29T15:01:29.954Z,101078.88
2023-03-29T15:04:11.639Z,101080.19
2023-03-29T15:06:47.483Z,101087.00
2023-03-29T15:09:27.666Z,101089.53
2023-03-29T15:12:09.091Z,101088.59
2023-03-29T15:14:49.021Z,101085.56
2023-03-29T15:17:47.532Z,101081.63
2023-03-29T15:20:28.372Z,101081.63
2023-03-29T15:23:05.604Z,101090.28
2023-03-29T15:25:42.103Z,101079.50
2023-03-29T15:28:31.734Z,101065.22
2023-03-29T15:31:36.203Z,101052.59
2023-03-29T15:34:40.453Z,101055.22
2023-03-29T15:37:21.221Z,101036.22
2023-03-29T15:39:56.711Z,101041.94
2023-03-29T15:42:29.935Z,101038.41
2023-03-29T15:45:08.752Z,101027.81
2023-03-29T15:47:43.036Z,101022.38
2023-03-29T15:50:18.181Z,101021.53
2023-03-29T15:53:05.384Z,101014.75
2023-03-29T15:55:58.135Z,101006.53
2023-03-29T15:58:39.817Z,101003.84
2023-03-29T16:01:34.902Z,100993.28
2023-03-29T16:04:37.207Z,100994.09
2023-03-29T16:07:18.859Z,100993.78
2023-03-29T16:09:52.925Z,100995.31
2023-03-29T16:12:26.427Z,100997.00
2023-03-29T16:15:12.926Z,100997.66
2023-03-29T16:18:11.317Z,100998.97
2023-03-29T16:20:50.336Z,101000.69
2023-03-29T16:23:28.166Z,101000.84
2023-03-29T16:26:08.441Z,101000.19
2023-03-29T16:28:48.292Z,100999.97
2023-03-29T16:31:23.931Z,101006.53
2023-03-29T16:34:04.125Z,101006.69
2023-03-29T16:36:39.950Z,101002.47
2023-03-29T16:39:14.641Z,101008.19
2023-03-29T16:41:54.135Z,101000.94
2023-03-29T16:44:31.880Z,101004.78
2023-03-29T16:47:05.406Z,101001.94
2023-03-29T16:49:43.721Z,100995.88
2023-03-29T16:52:21.666Z,100995.53
2023-03-29T16:54:57.408Z,101002.22
2023-03-29T16:57:30.580Z,101005.25
2023-03-29T17:00:05.881Z,100997.19
2023-03-29T17:02:40.499Z,100998.72
2023-03-29T17:05:41.640Z,100994.88
2023-03-29T17:08:17.248Z,100990.50
2023-03-29T17:10:59.525Z,100988.97
2023-03-29T17:13:36.309Z,100990.81
2023-03-29T17:16:12.168Z,100983.06
2023-03-29T17:18:49.738Z,100977.69
2023-03-29T17:21:26.856Z,100984.88
2023-03-29T17:24:01.075Z,100989.94
2023-03-29T17:26:46.997Z,100986.41
2023-03-29T17:29:23.368Z,100978.97
2023-03-29T17:32:02.429Z,100973.97
2023-03-29T17:34:38.645Z,100977.28
2023-03-29T17:37:13.687Z,100977.59
2023-03-29T17:39:53.605Z,100978.28
2023-03-29T17:42:41.762Z,100972.03
2023-03-29T17:45:24.209Z,100978.41
2023-03-29T17:47:57.794Z,100973.53
2023-03-29T17:50:32.960Z,100982.94
2023-03-29T17:53:10.848Z,100975.88
2023-03-29T17:55:47.636Z,100974.19
2023-03-29T17:58:21.031Z,100980.09
2023-03-29T18:01:05.416Z,100977.91
2023-03-29T18:04:00.733Z,100978.19
2023-03-29T18:06:47.138Z,100988.38
2023-03-29T18:09:56.135Z,100983.13
2023-03-29T18:12:43.872Z,100976.34
2023-03-29T18:15:28.817Z,100980.63
2023-03-29T18:18:06.127Z,100980.00
2023-03-29T18:20:42.818Z,100972.81
2023-03-29T18:23:29.994Z,100981.13
2023-03-29T18:26:43.343Z,100978.75
2023-03-29T18:30:16.205Z,100979.56
2023-03-29T18:33:42.295Z,100983.16
2023-03-29T18:36:24.263Z,100984.56
2023-03-29T18:39:06.306Z,100988.44
2023-03-29T18:41:43.583Z,100985.13
2023-03-29T18:44:15.977Z,100988.88
2023-03-29T18:46:49.287Z,100983.81
2023-03-29T18:49:28.485Z,100982.44
2023-03-29T18:52:06.961Z,100983.41
2023-03-29T18:54:40.414Z,100986.72
2023-03-29T18:57:30.553Z,100997.31
2023-03-29T19:00:13.860Z,100989.50
2023-03-29T19:02:47.749Z,100991.72
2023-03-29T19:05:25.473Z,100987.47
2023-03-29T19:08:04.327Z,100983.56
2023-03-29T19:10:42.036Z,100985.47
2023-03-29T19:13:18.445Z,100989.38
2023-03-29T19:15:51.486Z,100976.66
2023-03-29T19:18:27.277Z,100973.97
2023-03-29T19:21:00.298Z,100971.34
2023-03-29T19:23:35.951Z,100972.19
2023-03-29T19:26:13.393Z,100975.94
2023-03-29T19:28:49.207Z,100973.06
2023-03-29T19:31:38.420Z,100969.72
2023-03-29T19:34:11.471Z,100972.88
2023-03-29T19:36:43.805Z,100967.69
2023-03-29T19:39:15.672Z,100961.84
2023-03-29T19:41:47.832Z,100961.50
2023-03-29T19:44:23.930Z,100962.50
2023-03-29T19:46:56.030Z,100961.63
2023-03-29T19:49:27.848Z,100961.63
2023-03-29T19:52:15.826Z,100957.94
2023-03-29T19:54:47.914Z,100948.34
2023-03-29T19:57:20.887Z,100948.34
2023-03-29T19:59:56.337Z,100951.19
2023-03-29T20:02:28.894Z,100949.00
2023-03-29T20:05:02.104Z,100943.31
2023-03-29T20:07:38.067Z,100938.47
2023-03-29T20:10:11.764Z,100933.53
2023-03-29T20:12:44.737Z,100936.41
2023-03-29T20:15:20.037Z,100924.34
2023-03-29T20:17:59.892Z,100928.38
2023-03-29T20:20:36.859Z,100933.38
2023-03-29T20:23:13.511Z,100934.38
2023-03-29T20:25:56.053Z,100926.16
2023-03-29T20:28:33.142Z,100925.53
2023-03-29T20:31:16.136Z,100921.31
2023-03-29T20:33:51.309Z,100926.69
2023-03-29T20:36:25.294Z,100921.31
2023-03-29T20:38:59.832Z,100911.06
2023-03-29T20:41:32.780Z,100919.88
2023-03-29T20:44:05.174Z,100911.00
2023-03-29T20:46:47.160Z,100903.00
2023-03-29T20:49:19.008Z,100893.41
2023-03-29T20:51:58.770Z,100903.50
2023-03-29T20:54:34.456Z,100891.22
2023-03-29T20:57:07.158Z,100898.28
2023-03-29T20:59:39.542Z,100890.72
2023-03-29T21:02:18.307Z,100885.84
2023-03-29T21:05:00.685Z,100892.41
2023-03-29T21:07:35.825Z,100892.25
2023-03-29T21:10:08.231Z,100891.53
2023-03-29T21:12:40.976Z,100888.84
2023-03-29T21:15:18.888Z,100880.88
2023-03-29T21:17:55.096Z,100886.97
2023-03-29T21:20:33.753Z,100883.97
2023-03-29T21:23:09.795Z,100880.28
2023-03-29T21:25:47.595Z,100874.53
2023-03-29T21:28:19.475Z,100871.50
2023-03-29T21:30:52.461Z,100866.28
2023-03-29T21:33:30.404Z,100864.09
2023-03-29T21:36:06.121Z,100860.59
2023-03-29T21:38:46.129Z,100862.06
2023-03-29T21:41:19.989Z,100849.34
2023-03-29T21:43:53.609Z,100852.03
2023-03-29T21:46:26.794Z,100846.25
2023-03-29T21:49:02.097Z,100845.94
2023-03-29T21:51:37.656Z,100834.38
2023-03-29T21:54:10.430Z,100835.44
2023-03-29T21:56:46.582Z,100832.91
2023-03-29T21:59:20.493Z,100834.03
2023-03-29T22:01:58.484Z,100833.22
2023-03-29T22:04:37.260Z,100824.50
2023-03-29T22:07:13.626Z,100827.88
2023-03-29T22:09:49.726Z,100820.81
2023-03-29T22:12:28.149Z,100815.28
2023-03-29T22:15:02.988Z,100812.59
2023-03-29T22:17:37.402Z,100819.81
2023-03-29T22:20:16.220Z,100817.28
2023-03-29T22:22:59.755Z,100816.44
2023-03-29T22:25:47.968Z,100822.00
2023-03-29T22:28:21.358Z,100824.50
2023-03-29T22:30:53.376Z,100809.56
2023-03-29T22:33:25.838Z,100815.56
2023-03-29T22:36:00.366Z,100814.25
2023-03-29T22:38:33.256Z,100816.44
2023-03-29T22:41:05.843Z,100807.69
2023-03-29T22:43:39.705Z,100810.69
2023-03-29T22:46:13.407Z,100799.97
2023-03-29T22:50:34.228Z,100804.50
2023-03-29T22:52:50.732Z,100798.13
2023-03-29T22:55:22.353Z,100784.72
2023-03-29T22:57:54.294Z,100790.25
2023-03-29T23:00:26.151Z,100789.69
2023-03-29T23:02:58.522Z,100790.56
2023-03-29T23:05:30.574Z,100785.13
2023-03-29T23:08:07.655Z,100786.81
2023-03-29T23:10:41.752Z,100775.88
2023-03-29T23:13:18.059Z,100783.09
2023-03-29T23:16:25.370Z,100769.66
2023-03-29T23:19:28.634Z,100766.81
2023-03-29T23:22:01.780Z,100764.81
2023-03-29T23:24:36.557Z,100768.66
2023-03-29T23:27:08.171Z,100755.41
2023-03-29T23:29:41.138Z,100766.50
2023-03-29T23:32:12.669Z,100766.50
2023-03-29T23:34:44.927Z,100765.81
2023-03-29T23:37:16.546Z,100753.22
2023-03-29T23:39:51.267Z,100760.28
2023-03-29T23:42:23.110Z,100756.06
2023-03-29T23:44:55.072Z,100749.81
2023-03-29T23:47:26.906Z,100748.41
2023-03-29T23:50:02.418Z,100749.56
2023-03-29T23:52:35.994Z,100739.00
2023-03-29T23:55:12.198Z,100743.06
2023-03-29T23:57:43.807Z,100742.91
